sensor_id;sensor_type;location;lat;lon;timestamp;P1;durP1;ratioP1;P2;durP2;ratioP2
15516;SDS011;7860;52.030;5.572;2023-05-07T00:03:17;8.29;;;5.88;;
15516;SDS011;7860;52.030;5.572;2023-05-07T00:03:17;9.04;;;5.72;;
15516;SDS011;7860;52.030;5.572;2023-05-07T00:03:17;9.58;;;5.67;;
15516;SDS011;7860;52.030;5.572;2023-05-07T00:03:53;8.37;;;5.80;;
15516;SDS011;7860;52.030;5.572;2023-05-07T00:04:54;9.44;;;6.06;;
15516;SDS011;7860;52.030;5.572;2023-05-07T00:05:54;10.57;;;5.95;;
15516;SDS011;7860;52.030;5.572;2023-05-07T00:06:54;9.37;;;5.73;;
15516;SDS011;7860;52.030;5.572;2023-05-07T00:07:54;9.36;;;5.56;;
15516;SDS011;7860;52.030;5.572;2023-05-07T00:08:54;8.26;;;5.06;;
15516;SDS011;7860;52.030;5.572;2023-05-07T00:09:54;9.82;;;5.74;;
15516;SDS011;7860;52.030;5.572;2023-05-07T00:10:54;8.51;;;5.10;;
15516;SDS011;7860;52.030;5.572;2023-05-07T00:11:54;8.80;;;5.91;;
15516;SDS011;7860;52.030;5.572;2023-05-07T00:12:54;10.75;;;5.64;;
15516;SDS011;7860;52.030;5.572;2023-05-07T00:13:54;9.22;;;5.03;;
15516;SDS011;7860;52.030;5.572;2023-05-07T00:14:54;9.83;;;6.25;;
15516;SDS011;7860;52.030;5.572;2023-05-07T00:15:54;9.65;;;6.21;;
15516;SDS011;7860;52.030;5.572;2023-05-07T00:16:54;9.17;;;6.34;;
15516;SDS011;7860;52.030;5.572;2023-05-07T00:17:55;10.38;;;6.46;;
15516;SDS011;7860;52.030;5.572;2023-05-07T00:18:54;10.29;;;6.16;;
15516;SDS011;7860;52.030;5.572;2023-05-07T00:19:54;9.17;;;5.94;;
15516;SDS011;7860;52.030;5.572;2023-05-07T00:20:54;9.31;;;6.01;;
15516;SDS011;7860;52.030;5.572;2023-05-07T00:21:54;11.00;;;6.77;;
15516;SDS011;7860;52.030;5.572;2023-05-07T00:22:54;9.57;;;6.22;;
15516;SDS011;7860;52.030;5.572;2023-05-07T00:23:54;9.73;;;6.48;;
15516;SDS011;7860;52.030;5.572;2023-05-07T00:24:54;10.90;;;6.51;;
15516;SDS011;7860;52.030;5.572;2023-05-07T00:25:55;10.85;;;6.68;;
15516;SDS011;7860;52.030;5.572;2023-05-07T00:26:54;10.81;;;6.81;;
15516;SDS011;7860;52.030;5.572;2023-05-07T00:27:55;11.71;;;6.28;;
15516;SDS011;7860;52.030;5.572;2023-05-07T00:28:55;9.10;;;6.10;;
15516;SDS011;7860;52.030;5.572;2023-05-07T00:29:55;11.02;;;6.54;;
15516;SDS011;7860;52.030;5.572;2023-05-07T00:30:55;9.97;;;5.98;;
15516;SDS011;7860;52.030;5.572;2023-05-07T00:31:56;9.53;;;6.12;;
15516;SDS011;7860;52.030;5.572;2023-05-07T00:32:56;11.60;;;6.04;;
15516;SDS011;7860;52.030;5.572;2023-05-07T00:33:56;9.45;;;6.39;;
15516;SDS011;7860;52.030;5.572;2023-05-07T00:34:56;9.77;;;6.24;;
15516;SDS011;7860;52.030;5.572;2023-05-07T00:35:56;9.72;;;6.73;;
15516;SDS011;7860;52.030;5.572;2023-05-07T00:36:57;9.29;;;5.95;;
15516;SDS011;7860;52.030;5.572;2023-05-07T00:37:57;11.59;;;6.47;;
15516;SDS011;7860;52.030;5.572;2023-05-07T00:38:58;10.55;;;6.64;;
15516;SDS011;7860;52.030;5.572;2023-05-07T00:39:57;9.37;;;6.52;;
15516;SDS011;7860;52.030;5.572;2023-05-07T00:40:57;10.05;;;6.68;;
15516;SDS011;7860;52.030;5.572;2023-05-07T00:41:57;9.94;;;6.53;;
15516;SDS011;7860;52.030;5.572;2023-05-07T00:42:57;10.29;;;6.44;;
15516;SDS011;7860;52.030;5.572;2023-05-07T00:43:57;11.34;;;6.50;;
15516;SDS011;7860;52.030;5.572;2023-05-07T00:44:57;12.22;;;6.41;;
15516;SDS011;7860;52.030;5.572;2023-05-07T00:45:57;9.91;;;6.59;;
15516;SDS011;7860;52.030;5.572;2023-05-07T00:46:58;11.41;;;6.74;;
15516;SDS011;7860;52.030;5.572;2023-05-07T00:47:59;10.01;;;6.50;;
15516;SDS011;7860;52.030;5.572;2023-05-07T00:48:58;10.21;;;6.59;;
15516;SDS011;7860;52.030;5.572;2023-05-07T00:49:58;9.19;;;6.58;;
15516;SDS011;7860;52.030;5.572;2023-05-07T00:50:58;10.11;;;6.54;;
15516;SDS011;7860;52.030;5.572;2023-05-07T00:51:59;9.99;;;6.52;;
15516;SDS011;7860;52.030;5.572;2023-05-07T00:52:59;10.20;;;6.84;;
15516;SDS011;7860;52.030;5.572;2023-05-07T00:53:59;11.00;;;6.00;;
15516;SDS011;7860;52.030;5.572;2023-05-07T00:54:59;8.84;;;6.44;;
15516;SDS011;7860;52.030;5.572;2023-05-07T00:55:59;10.28;;;6.80;;
15516;SDS011;7860;52.030;5.572;2023-05-07T00:56:59;11.69;;;6.52;;
15516;SDS011;7860;52.030;5.572;2023-05-07T00:57:59;10.60;;;6.77;;
15516;SDS011;7860;52.030;5.572;2023-05-07T00:59:00;10.06;;;6.85;;
15516;SDS011;7860;52.030;5.572;2023-05-07T00:59:59;10.23;;;6.96;;
15516;SDS011;7860;52.030;5.572;2023-05-07T01:00:59;10.18;;;7.03;;
15516;SDS011;7860;52.030;5.572;2023-05-07T01:01:59;10.22;;;6.94;;
15516;SDS011;7860;52.030;5.572;2023-05-07T01:02:59;10.15;;;6.57;;
15516;SDS011;7860;52.030;5.572;2023-05-07T01:03:59;10.51;;;6.84;;
15516;SDS011;7860;52.030;5.572;2023-05-07T01:05:00;11.14;;;6.95;;
15516;SDS011;7860;52.030;5.572;2023-05-07T01:06:00;11.24;;;7.15;;
15516;SDS011;7860;52.030;5.572;2023-05-07T01:07:00;9.90;;;6.59;;
15516;SDS011;7860;52.030;5.572;2023-05-07T01:08:01;9.30;;;6.98;;
15516;SDS011;7860;52.030;5.572;2023-05-07T01:09:00;9.69;;;6.84;;
15516;SDS011;7860;52.030;5.572;2023-05-07T01:10:01;11.38;;;7.01;;
15516;SDS011;7860;52.030;5.572;2023-05-07T01:11:01;10.10;;;6.56;;
15516;SDS011;7860;52.030;5.572;2023-05-07T01:12:01;11.08;;;7.18;;
15516;SDS011;7860;52.030;5.572;2023-05-07T01:13:01;9.58;;;6.96;;
15516;SDS011;7860;52.030;5.572;2023-05-07T01:14:01;10.99;;;7.26;;
15516;SDS011;7860;52.030;5.572;2023-05-07T01:15:01;10.49;;;6.50;;
15516;SDS011;7860;52.030;5.572;2023-05-07T01:16:01;9.23;;;6.20;;
15516;SDS011;7860;52.030;5.572;2023-05-07T01:17:02;10.40;;;7.29;;
15516;SDS011;7860;52.030;5.572;2023-05-07T01:18:02;10.27;;;7.21;;
15516;SDS011;7860;52.030;5.572;2023-05-07T01:19:02;9.25;;;7.01;;
15516;SDS011;7860;52.030;5.572;2023-05-07T01:20:02;11.25;;;7.28;;
15516;SDS011;7860;52.030;5.572;2023-05-07T01:21:03;9.73;;;6.60;;
15516;SDS011;7860;52.030;5.572;2023-05-07T01:22:03;12.30;;;7.31;;
15516;SDS011;7860;52.030;5.572;2023-05-07T01:23:02;11.04;;;7.50;;
15516;SDS011;7860;52.030;5.572;2023-05-07T01:24:02;10.87;;;7.69;;
15516;SDS011;7860;52.030;5.572;2023-05-07T01:25:02;9.12;;;6.41;;
15516;SDS011;7860;52.030;5.572;2023-05-07T01:26:02;11.73;;;7.17;;
15516;SDS011;7860;52.030;5.572;2023-05-07T01:27:02;10.69;;;7.17;;
15516;SDS011;7860;52.030;5.572;2023-05-07T01:28:02;10.41;;;7.72;;
15516;SDS011;7860;52.030;5.572;2023-05-07T01:29:02;11.29;;;7.61;;
15516;SDS011;7860;52.030;5.572;2023-05-07T01:30:04;12.93;;;7.65;;
15516;SDS011;7860;52.030;5.572;2023-05-07T01:31:03;11.80;;;8.31;;
15516;SDS011;7860;52.030;5.572;2023-05-07T01:32:03;12.82;;;7.88;;
15516;SDS011;7860;52.030;5.572;2023-05-07T01:33:03;11.22;;;8.19;;
15516;SDS011;7860;52.030;5.572;2023-05-07T01:34:03;11.40;;;8.02;;
15516;SDS011;7860;52.030;5.572;2023-05-07T01:35:03;12.27;;;7.76;;
15516;SDS011;7860;52.030;5.572;2023-05-07T01:36:03;11.48;;;7.79;;
15516;SDS011;7860;52.030;5.572;2023-05-07T01:37:03;12.14;;;8.09;;
15516;SDS011;7860;52.030;5.572;2023-05-07T01:38:03;11.97;;;7.68;;
15516;SDS011;7860;52.030;5.572;2023-05-07T01:39:03;11.98;;;7.82;;
15516;SDS011;7860;52.030;5.572;2023-05-07T01:40:03;10.70;;;7.61;;
15516;SDS011;7860;52.030;5.572;2023-05-07T01:41:03;11.80;;;7.29;;
15516;SDS011;7860;52.030;5.572;2023-05-07T01:42:03;11.53;;;7.42;;
15516;SDS011;7860;52.030;5.572;2023-05-07T01:43:03;13.64;;;7.07;;
15516;SDS011;7860;52.030;5.572;2023-05-07T01:44:03;11.50;;;7.29;;
15516;SDS011;7860;52.030;5.572;2023-05-07T01:45:03;13.45;;;7.39;;
15516;SDS011;7860;52.030;5.572;2023-05-07T01:46:03;10.71;;;7.35;;
15516;SDS011;7860;52.030;5.572;2023-05-07T01:47:03;10.83;;;7.68;;
15516;SDS011;7860;52.030;5.572;2023-05-07T01:48:03;14.33;;;7.95;;
15516;SDS011;7860;52.030;5.572;2023-05-07T01:49:03;13.26;;;8.42;;
15516;SDS011;7860;52.030;5.572;2023-05-07T01:50:04;10.26;;;7.87;;
15516;SDS011;7860;52.030;5.572;2023-05-07T01:51:03;12.31;;;7.72;;
15516;SDS011;7860;52.030;5.572;2023-05-07T01:52:03;10.48;;;7.60;;
15516;SDS011;7860;52.030;5.572;2023-05-07T01:53:04;10.48;;;7.26;;
15516;SDS011;7860;52.030;5.572;2023-05-07T01:54:05;11.80;;;8.18;;
15516;SDS011;7860;52.030;5.572;2023-05-07T01:55:05;10.95;;;7.39;;
15516;SDS011;7860;52.030;5.572;2023-05-07T01:56:05;9.92;;;7.22;;
15516;SDS011;7860;52.030;5.572;2023-05-07T01:57:05;11.00;;;6.75;;
15516;SDS011;7860;52.030;5.572;2023-05-07T01:58:05;11.22;;;8.01;;
15516;SDS011;7860;52.030;5.572;2023-05-07T01:59:05;12.33;;;7.64;;
15516;SDS011;7860;52.030;5.572;2023-05-07T02:00:06;11.06;;;7.36;;
15516;SDS011;7860;52.030;5.572;2023-05-07T02:01:06;12.92;;;8.27;;
15516;SDS011;7860;52.030;5.572;2023-05-07T02:02:06;11.95;;;8.14;;
15516;SDS011;7860;52.030;5.572;2023-05-07T02:03:06;12.09;;;8.53;;
15516;SDS011;7860;52.030;5.572;2023-05-07T02:04:06;10.72;;;7.85;;
15516;SDS011;7860;52.030;5.572;2023-05-07T02:05:06;11.80;;;8.32;;
15516;SDS011;7860;52.030;5.572;2023-05-07T02:06:06;11.64;;;8.28;;
15516;SDS011;7860;52.030;5.572;2023-05-07T02:07:06;13.44;;;8.75;;
15516;SDS011;7860;52.030;5.572;2023-05-07T02:08:06;12.15;;;8.69;;
15516;SDS011;7860;52.030;5.572;2023-05-07T02:09:06;14.05;;;8.88;;
15516;SDS011;7860;52.030;5.572;2023-05-07T02:10:07;13.92;;;9.11;;
15516;SDS011;7860;52.030;5.572;2023-05-07T02:11:06;13.37;;;9.28;;
15516;SDS011;7860;52.030;5.572;2023-05-07T02:12:06;12.47;;;8.92;;
15516;SDS011;7860;52.030;5.572;2023-05-07T02:13:06;12.16;;;8.95;;
15516;SDS011;7860;52.030;5.572;2023-05-07T02:14:06;12.67;;;9.43;;
15516;SDS011;7860;52.030;5.572;2023-05-07T02:15:07;12.07;;;9.71;;
15516;SDS011;7860;52.030;5.572;2023-05-07T02:16:07;14.40;;;9.97;;
15516;SDS011;7860;52.030;5.572;2023-05-07T02:17:07;14.30;;;10.06;;
15516;SDS011;7860;52.030;5.572;2023-05-07T02:18:07;14.72;;;9.82;;
15516;SDS011;7860;52.030;5.572;2023-05-07T02:19:07;13.05;;;9.72;;
15516;SDS011;7860;52.030;5.572;2023-05-07T02:20:07;14.26;;;9.24;;
15516;SDS011;7860;52.030;5.572;2023-05-07T02:21:07;12.49;;;9.61;;
15516;SDS011;7860;52.030;5.572;2023-05-07T02:22:07;13.51;;;10.04;;
15516;SDS011;7860;52.030;5.572;2023-05-07T02:23:07;15.04;;;9.98;;
15516;SDS011;7860;52.030;5.572;2023-05-07T02:24:07;15.33;;;9.68;;
15516;SDS011;7860;52.030;5.572;2023-05-07T02:25:07;14.21;;;10.01;;
15516;SDS011;7860;52.030;5.572;2023-05-07T02:26:07;13.65;;;9.73;;
15516;SDS011;7860;52.030;5.572;2023-05-07T02:27:08;13.76;;;9.69;;
15516;SDS011;7860;52.030;5.572;2023-05-07T02:28:08;14.55;;;10.11;;
15516;SDS011;7860;52.030;5.572;2023-05-07T02:29:08;13.51;;;10.45;;
15516;SDS011;7860;52.030;5.572;2023-05-07T02:30:09;13.37;;;10.08;;
15516;SDS011;7860;52.030;5.572;2023-05-07T02:31:08;13.45;;;10.31;;
15516;SDS011;7860;52.030;5.572;2023-05-07T02:32:08;12.75;;;9.71;;
15516;SDS011;7860;52.030;5.572;2023-05-07T02:33:08;14.57;;;9.06;;
15516;SDS011;7860;52.030;5.572;2023-05-07T02:34:08;15.40;;;10.47;;
15516;SDS011;7860;52.030;5.572;2023-05-07T02:35:09;13.71;;;10.75;;
15516;SDS011;7860;52.030;5.572;2023-05-07T02:36:09;13.57;;;10.35;;
15516;SDS011;7860;52.030;5.572;2023-05-07T02:37:09;13.23;;;10.34;;
15516;SDS011;7860;52.030;5.572;2023-05-07T02:38:09;15.12;;;10.80;;
15516;SDS011;7860;52.030;5.572;2023-05-07T02:39:09;15.06;;;10.75;;
15516;SDS011;7860;52.030;5.572;2023-05-07T02:40:09;14.98;;;10.66;;
15516;SDS011;7860;52.030;5.572;2023-05-07T02:41:09;14.77;;;10.74;;
15516;SDS011;7860;52.030;5.572;2023-05-07T02:42:09;13.79;;;10.78;;
15516;SDS011;7860;52.030;5.572;2023-05-07T02:43:09;14.73;;;11.12;;
15516;SDS011;7860;52.030;5.572;2023-05-07T02:44:09;14.58;;;10.76;;
15516;SDS011;7860;52.030;5.572;2023-05-07T02:45:09;15.04;;;11.46;;
15516;SDS011;7860;52.030;5.572;2023-05-07T02:46:09;14.38;;;10.99;;
15516;SDS011;7860;52.030;5.572;2023-05-07T02:47:09;14.54;;;10.54;;
15516;SDS011;7860;52.030;5.572;2023-05-07T02:48:09;13.05;;;9.84;;
15516;SDS011;7860;52.030;5.572;2023-05-07T02:49:09;14.52;;;10.07;;
15516;SDS011;7860;52.030;5.572;2023-05-07T02:50:09;11.79;;;9.25;;
15516;SDS011;7860;52.030;5.572;2023-05-07T02:51:09;14.19;;;10.03;;
15516;SDS011;7860;52.030;5.572;2023-05-07T02:52:09;13.73;;;9.78;;
15516;SDS011;7860;52.030;5.572;2023-05-07T02:53:09;12.74;;;9.65;;
15516;SDS011;7860;52.030;5.572;2023-05-07T02:54:09;15.67;;;10.38;;
15516;SDS011;7860;52.030;5.572;2023-05-07T02:55:09;13.90;;;9.77;;
15516;SDS011;7860;52.030;5.572;2023-05-07T02:56:09;15.01;;;9.06;;
15516;SDS011;7860;52.030;5.572;2023-05-07T02:57:09;13.32;;;10.10;;
15516;SDS011;7860;52.030;5.572;2023-05-07T02:58:10;12.55;;;9.49;;
15516;SDS011;7860;52.030;5.572;2023-05-07T02:59:10;14.21;;;10.29;;
15516;SDS011;7860;52.030;5.572;2023-05-07T03:00:10;13.43;;;9.39;;
15516;SDS011;7860;52.030;5.572;2023-05-07T03:01:10;14.16;;;9.82;;
15516;SDS011;7860;52.030;5.572;2023-05-07T03:02:10;13.44;;;10.00;;
15516;SDS011;7860;52.030;5.572;2023-05-07T03:03:10;14.17;;;10.00;;
15516;SDS011;7860;52.030;5.572;2023-05-07T03:04:10;12.85;;;10.02;;
15516;SDS011;7860;52.030;5.572;2023-05-07T03:05:11;14.96;;;10.10;;
15516;SDS011;7860;52.030;5.572;2023-05-07T03:06:11;13.26;;;9.32;;
15516;SDS011;7860;52.030;5.572;2023-05-07T03:07:11;14.24;;;10.35;;
15516;SDS011;7860;52.030;5.572;2023-05-07T03:08:11;13.30;;;9.09;;
15516;SDS011;7860;52.030;5.572;2023-05-07T03:09:11;13.41;;;9.33;;
15516;SDS011;7860;52.030;5.572;2023-05-07T03:10:11;11.89;;;8.84;;
15516;SDS011;7860;52.030;5.572;2023-05-07T03:11:11;14.36;;;9.83;;
15516;SDS011;7860;52.030;5.572;2023-05-07T03:12:11;14.55;;;9.38;;
15516;SDS011;7860;52.030;5.572;2023-05-07T03:13:11;13.19;;;10.16;;
15516;SDS011;7860;52.030;5.572;2023-05-07T03:14:11;14.46;;;10.58;;
15516;SDS011;7860;52.030;5.572;2023-05-07T03:15:11;13.84;;;10.67;;
15516;SDS011;7860;52.030;5.572;2023-05-07T03:16:11;12.66;;;9.87;;
15516;SDS011;7860;52.030;5.572;2023-05-07T03:17:11;12.56;;;9.30;;
15516;SDS011;7860;52.030;5.572;2023-05-07T03:18:11;13.84;;;10.44;;
15516;SDS011;7860;52.030;5.572;2023-05-07T03:19:11;14.36;;;10.53;;
15516;SDS011;7860;52.030;5.572;2023-05-07T03:20:11;13.81;;;10.66;;
15516;SDS011;7860;52.030;5.572;2023-05-07T03:21:12;13.44;;;11.24;;
15516;SDS011;7860;52.030;5.572;2023-05-07T03:22:12;14.30;;;11.20;;
15516;SDS011;7860;52.030;5.572;2023-05-07T03:23:12;14.47;;;10.24;;
15516;SDS011;7860;52.030;5.572;2023-05-07T03:24:12;13.97;;;11.04;;
15516;SDS011;7860;52.030;5.572;2023-05-07T03:25:12;14.95;;;11.21;;
15516;SDS011;7860;52.030;5.572;2023-05-07T03:26:12;14.54;;;9.92;;
15516;SDS011;7860;52.030;5.572;2023-05-07T03:27:12;14.38;;;10.26;;
15516;SDS011;7860;52.030;5.572;2023-05-07T03:28:12;14.83;;;11.13;;
15516;SDS011;7860;52.030;5.572;2023-05-07T03:29:12;14.36;;;11.25;;
15516;SDS011;7860;52.030;5.572;2023-05-07T03:30:12;15.09;;;11.03;;
15516;SDS011;7860;52.030;5.572;2023-05-07T03:31:12;15.41;;;11.06;;
15516;SDS011;7860;52.030;5.572;2023-05-07T03:32:12;14.06;;;10.93;;
15516;SDS011;7860;52.030;5.572;2023-05-07T03:33:12;13.26;;;10.82;;
15516;SDS011;7860;52.030;5.572;2023-05-07T03:34:12;14.90;;;10.54;;
15516;SDS011;7860;52.030;5.572;2023-05-07T03:35:12;15.01;;;10.48;;
15516;SDS011;7860;52.030;5.572;2023-05-07T03:36:12;14.93;;;11.17;;
15516;SDS011;7860;52.030;5.572;2023-05-07T03:37:12;14.04;;;11.10;;
15516;SDS011;7860;52.030;5.572;2023-05-07T03:38:12;15.11;;;11.34;;
15516;SDS011;7860;52.030;5.572;2023-05-07T03:39:12;16.14;;;11.66;;
15516;SDS011;7860;52.030;5.572;2023-05-07T03:40:12;17.99;;;11.36;;
15516;SDS011;7860;52.030;5.572;2023-05-07T03:41:13;16.80;;;11.33;;
15516;SDS011;7860;52.030;5.572;2023-05-07T03:42:14;14.38;;;10.95;;
15516;SDS011;7860;52.030;5.572;2023-05-07T03:43:13;14.06;;;10.45;;
15516;SDS011;7860;52.030;5.572;2023-05-07T03:44:14;15.91;;;11.41;;
15516;SDS011;7860;52.030;5.572;2023-05-07T03:45:15;14.33;;;11.17;;
15516;SDS011;7860;52.030;5.572;2023-05-07T03:46:15;14.10;;;11.05;;
15516;SDS011;7860;52.030;5.572;2023-05-07T03:47:15;14.26;;;11.09;;
15516;SDS011;7860;52.030;5.572;2023-05-07T03:48:15;14.35;;;10.66;;
15516;SDS011;7860;52.030;5.572;2023-05-07T03:49:15;14.30;;;10.79;;
15516;SDS011;7860;52.030;5.572;2023-05-07T03:50:16;13.86;;;10.95;;
15516;SDS011;7860;52.030;5.572;2023-05-07T03:51:16;14.04;;;11.33;;
15516;SDS011;7860;52.030;5.572;2023-05-07T03:52:16;15.03;;;11.03;;
15516;SDS011;7860;52.030;5.572;2023-05-07T03:53:16;12.82;;;10.22;;
15516;SDS011;7860;52.030;5.572;2023-05-07T03:54:16;13.69;;;10.49;;
15516;SDS011;7860;52.030;5.572;2023-05-07T03:55:16;13.50;;;10.99;;
15516;SDS011;7860;52.030;5.572;2023-05-07T03:56:16;14.40;;;10.49;;
15516;SDS011;7860;52.030;5.572;2023-05-07T03:57:33;14.89;;;10.98;;
15516;SDS011;7860;52.030;5.572;2023-05-07T03:58:33;13.84;;;10.73;;
15516;SDS011;7860;52.030;5.572;2023-05-07T03:59:33;14.20;;;11.05;;
15516;SDS011;7860;52.030;5.572;2023-05-07T04:00:33;14.03;;;10.35;;
15516;SDS011;7860;52.030;5.572;2023-05-07T04:01:33;13.48;;;10.89;;
15516;SDS011;7860;52.030;5.572;2023-05-07T04:02:33;12.21;;;10.18;;
15516;SDS011;7860;52.030;5.572;2023-05-07T04:03:33;15.82;;;11.32;;
15516;SDS011;7860;52.030;5.572;2023-05-07T04:04:33;15.70;;;10.91;;
15516;SDS011;7860;52.030;5.572;2023-05-07T04:05:33;15.07;;;10.64;;
15516;SDS011;7860;52.030;5.572;2023-05-07T04:06:33;13.83;;;10.84;;
15516;SDS011;7860;52.030;5.572;2023-05-07T04:07:33;13.78;;;11.06;;
15516;SDS011;7860;52.030;5.572;2023-05-07T04:08:33;13.56;;;10.62;;
15516;SDS011;7860;52.030;5.572;2023-05-07T04:09:34;14.80;;;10.74;;
15516;SDS011;7860;52.030;5.572;2023-05-07T04:10:34;13.17;;;10.51;;
15516;SDS011;7860;52.030;5.572;2023-05-07T04:11:35;13.22;;;9.36;;
15516;SDS011;7860;52.030;5.572;2023-05-07T04:12:34;13.54;;;10.53;;
15516;SDS011;7860;52.030;5.572;2023-05-07T04:13:34;14.87;;;11.31;;
15516;SDS011;7860;52.030;5.572;2023-05-07T04:14:34;14.85;;;10.95;;
15516;SDS011;7860;52.030;5.572;2023-05-07T04:15:34;13.88;;;10.50;;
15516;SDS011;7860;52.030;5.572;2023-05-07T04:16:34;14.16;;;11.28;;
15516;SDS011;7860;52.030;5.572;2023-05-07T04:17:34;13.97;;;11.10;;
15516;SDS011;7860;52.030;5.572;2023-05-07T04:18:34;15.73;;;11.28;;
15516;SDS011;7860;52.030;5.572;2023-05-07T04:19:34;15.46;;;11.80;;
15516;SDS011;7860;52.030;5.572;2023-05-07T04:20:34;15.54;;;11.20;;
15516;SDS011;7860;52.030;5.572;2023-05-07T04:21:34;16.17;;;10.70;;
15516;SDS011;7860;52.030;5.572;2023-05-07T04:22:34;13.38;;;10.52;;
15516;SDS011;7860;52.030;5.572;2023-05-07T04:23:35;14.50;;;10.83;;
15516;SDS011;7860;52.030;5.572;2023-05-07T04:24:35;15.35;;;11.38;;
15516;SDS011;7860;52.030;5.572;2023-05-07T04:25:35;15.20;;;11.27;;
15516;SDS011;7860;52.030;5.572;2023-05-07T04:26:35;15.11;;;11.31;;
15516;SDS011;7860;52.030;5.572;2023-05-07T04:27:36;15.01;;;11.38;;
15516;SDS011;7860;52.030;5.572;2023-05-07T04:28:36;14.03;;;11.07;;
15516;SDS011;7860;52.030;5.572;2023-05-07T04:29:36;13.77;;;11.07;;
15516;SDS011;7860;52.030;5.572;2023-05-07T04:30:36;14.05;;;11.84;;
15516;SDS011;7860;52.030;5.572;2023-05-07T04:31:36;15.23;;;11.61;;
15516;SDS011;7860;52.030;5.572;2023-05-07T04:32:37;14.26;;;10.67;;
15516;SDS011;7860;52.030;5.572;2023-05-07T04:33:37;15.61;;;12.02;;
15516;SDS011;7860;52.030;5.572;2023-05-07T04:34:37;14.88;;;11.46;;
15516;SDS011;7860;52.030;5.572;2023-05-07T04:35:37;12.55;;;9.92;;
15516;SDS011;7860;52.030;5.572;2023-05-07T04:36:37;14.60;;;10.94;;
15516;SDS011;7860;52.030;5.572;2023-05-07T04:37:37;15.94;;;11.61;;
15516;SDS011;7860;52.030;5.572;2023-05-07T04:38:37;14.34;;;11.70;;
15516;SDS011;7860;52.030;5.572;2023-05-07T04:39:37;15.06;;;11.34;;
15516;SDS011;7860;52.030;5.572;2023-05-07T04:40:37;17.17;;;11.95;;
15516;SDS011;7860;52.030;5.572;2023-05-07T04:41:37;18.32;;;12.66;;
15516;SDS011;7860;52.030;5.572;2023-05-07T04:42:37;16.03;;;11.89;;
15516;SDS011;7860;52.030;5.572;2023-05-07T04:43:37;15.39;;;11.66;;
15516;SDS011;7860;52.030;5.572;2023-05-07T04:44:37;15.65;;;12.18;;
15516;SDS011;7860;52.030;5.572;2023-05-07T04:45:37;15.80;;;12.48;;
15516;SDS011;7860;52.030;5.572;2023-05-07T04:46:37;15.91;;;11.96;;
15516;SDS011;7860;52.030;5.572;2023-05-07T04:47:37;15.41;;;12.05;;
15516;SDS011;7860;52.030;5.572;2023-05-07T04:48:37;15.58;;;12.31;;
15516;SDS011;7860;52.030;5.572;2023-05-07T04:49:37;15.43;;;12.26;;
15516;SDS011;7860;52.030;5.572;2023-05-07T04:50:37;16.64;;;12.63;;
15516;SDS011;7860;52.030;5.572;2023-05-07T04:51:37;18.35;;;12.70;;
15516;SDS011;7860;52.030;5.572;2023-05-07T04:52:37;17.29;;;12.83;;
15516;SDS011;7860;52.030;5.572;2023-05-07T04:53:37;16.88;;;12.70;;
15516;SDS011;7860;52.030;5.572;2023-05-07T04:54:37;15.95;;;12.20;;
15516;SDS011;7860;52.030;5.572;2023-05-07T04:55:38;15.93;;;11.91;;
15516;SDS011;7860;52.030;5.572;2023-05-07T04:56:38;15.33;;;12.30;;
15516;SDS011;7860;52.030;5.572;2023-05-07T04:57:38;16.91;;;11.81;;
15516;SDS011;7860;52.030;5.572;2023-05-07T04:58:38;15.37;;;11.67;;
15516;SDS011;7860;52.030;5.572;2023-05-07T04:59:38;16.27;;;11.92;;
15516;SDS011;7860;52.030;5.572;2023-05-07T05:00:39;16.65;;;12.04;;
15516;SDS011;7860;52.030;5.572;2023-05-07T05:01:39;16.95;;;12.19;;
15516;SDS011;7860;52.030;5.572;2023-05-07T05:02:39;16.66;;;11.95;;
15516;SDS011;7860;52.030;5.572;2023-05-07T05:03:39;17.47;;;12.66;;
15516;SDS011;7860;52.030;5.572;2023-05-07T05:04:39;16.86;;;12.36;;
15516;SDS011;7860;52.030;5.572;2023-05-07T05:05:39;16.44;;;11.83;;
15516;SDS011;7860;52.030;5.572;2023-05-07T05:06:39;15.58;;;12.53;;
15516;SDS011;7860;52.030;5.572;2023-05-07T05:07:39;16.07;;;12.30;;
15516;SDS011;7860;52.030;5.572;2023-05-07T05:08:39;16.65;;;12.06;;
15516;SDS011;7860;52.030;5.572;2023-05-07T05:09:39;15.31;;;12.05;;
15516;SDS011;7860;52.030;5.572;2023-05-07T05:10:39;14.75;;;11.80;;
15516;SDS011;7860;52.030;5.572;2023-05-07T05:11:39;17.31;;;12.09;;
15516;SDS011;7860;52.030;5.572;2023-05-07T05:12:39;15.83;;;11.96;;
15516;SDS011;7860;52.030;5.572;2023-05-07T05:13:39;15.09;;;11.55;;
15516;SDS011;7860;52.030;5.572;2023-05-07T05:14:40;15.36;;;11.49;;
15516;SDS011;7860;52.030;5.572;2023-05-07T05:15:40;14.95;;;11.46;;
15516;SDS011;7860;52.030;5.572;2023-05-07T05:16:40;16.85;;;11.52;;
15516;SDS011;7860;52.030;5.572;2023-05-07T05:17:40;15.27;;;11.64;;
15516;SDS011;7860;52.030;5.572;2023-05-07T05:18:40;16.52;;;11.31;;
15516;SDS011;7860;52.030;5.572;2023-05-07T05:19:40;13.96;;;10.49;;
15516;SDS011;7860;52.030;5.572;2023-05-07T05:20:40;15.02;;;11.49;;
15516;SDS011;7860;52.030;5.572;2023-05-07T05:21:40;13.59;;;9.98;;
15516;SDS011;7860;52.030;5.572;2023-05-07T05:22:40;15.76;;;10.80;;
15516;SDS011;7860;52.030;5.572;2023-05-07T05:23:40;15.14;;;11.01;;
15516;SDS011;7860;52.030;5.572;2023-05-07T05:24:40;15.10;;;11.39;;
15516;SDS011;7860;52.030;5.572;2023-05-07T05:25:40;14.80;;;11.22;;
15516;SDS011;7860;52.030;5.572;2023-05-07T05:26:40;16.04;;;10.93;;
15516;SDS011;7860;52.030;5.572;2023-05-07T05:27:40;14.89;;;11.70;;
15516;SDS011;7860;52.030;5.572;2023-05-07T05:28:40;15.41;;;10.75;;
15516;SDS011;7860;52.030;5.572;2023-05-07T05:29:40;14.46;;;10.81;;
15516;SDS011;7860;52.030;5.572;2023-05-07T05:30:40;15.59;;;11.18;;
15516;SDS011;7860;52.030;5.572;2023-05-07T05:31:40;15.96;;;11.03;;
15516;SDS011;7860;52.030;5.572;2023-05-07T05:32:40;14.63;;;10.87;;
15516;SDS011;7860;52.030;5.572;2023-05-07T05:33:40;16.26;;;10.80;;
15516;SDS011;7860;52.030;5.572;2023-05-07T05:34:40;14.14;;;10.82;;
15516;SDS011;7860;52.030;5.572;2023-05-07T05:35:41;16.89;;;11.64;;
15516;SDS011;7860;52.030;5.572;2023-05-07T05:36:40;15.00;;;11.54;;
15516;SDS011;7860;52.030;5.572;2023-05-07T05:37:41;14.01;;;11.10;;
15516;SDS011;7860;52.030;5.572;2023-05-07T05:38:41;14.44;;;10.72;;
15516;SDS011;7860;52.030;5.572;2023-05-07T05:39:41;14.09;;;10.94;;
15516;SDS011;7860;52.030;5.572;2023-05-07T05:40:41;16.81;;;10.88;;
15516;SDS011;7860;52.030;5.572;2023-05-07T05:41:41;13.79;;;10.75;;
15516;SDS011;7860;52.030;5.572;2023-05-07T05:42:41;14.72;;;10.65;;
15516;SDS011;7860;52.030;5.572;2023-05-07T05:43:41;13.68;;;10.53;;
15516;SDS011;7860;52.030;5.572;2023-05-07T05:44:41;14.69;;;10.90;;
15516;SDS011;7860;52.030;5.572;2023-05-07T05:45:41;14.94;;;11.02;;
15516;SDS011;7860;52.030;5.572;2023-05-07T05:46:41;14.05;;;10.92;;
15516;SDS011;7860;52.030;5.572;2023-05-07T05:47:41;15.48;;;11.28;;
15516;SDS011;7860;52.030;5.572;2023-05-07T05:48:41;15.30;;;11.12;;
15516;SDS011;7860;52.030;5.572;2023-05-07T05:49:41;14.42;;;10.76;;
15516;SDS011;7860;52.030;5.572;2023-05-07T05:50:41;14.74;;;11.52;;
15516;SDS011;7860;52.030;5.572;2023-05-07T05:51:41;15.45;;;11.62;;
15516;SDS011;7860;52.030;5.572;2023-05-07T05:52:41;15.10;;;11.69;;
15516;SDS011;7860;52.030;5.572;2023-05-07T05:53:41;14.39;;;11.26;;
15516;SDS011;7860;52.030;5.572;2023-05-07T05:54:41;14.94;;;11.60;;
15516;SDS011;7860;52.030;5.572;2023-05-07T05:55:41;15.90;;;12.12;;
15516;SDS011;7860;52.030;5.572;2023-05-07T05:56:42;15.31;;;11.66;;
15516;SDS011;7860;52.030;5.572;2023-05-07T05:57:41;15.44;;;11.62;;
15516;SDS011;7860;52.030;5.572;2023-05-07T05:58:42;14.87;;;11.03;;
15516;SDS011;7860;52.030;5.572;2023-05-07T05:59:42;14.74;;;11.64;;
15516;SDS011;7860;52.030;5.572;2023-05-07T06:00:42;14.67;;;11.99;;